sensor_id;sensor_type;location;lat;lon;timestamp;P1;durP1;ratioP1;P2;durP2;ratioP2
50231;SDS011;36118;56.468;84.952;2023-08-07T00:01:52;12.10;;;7.20;;
50231;SDS011;36118;56.468;84.952;2023-08-07T00:06:55;13.20;;;7.20;;
50231;SDS011;36118;56.468;84.952;2023-08-07T00:11:58;12.75;;;7.05;;
50231;SDS011;36118;56.468;84.952;2023-08-07T00:17:02;12.05;;;6.20;;
50231;SDS011;36118;56.468;84.952;2023-08-07T00:27:10;12.70;;;6.32;;
50231;SDS011;36118;56.468;84.952;2023-08-07T00:32:15;12.63;;;6.25;;
50231;SDS011;36118;56.468;84.952;2023-08-07T00:37:19;10.63;;;5.95;;
50231;SDS011;36118;56.468;84.952;2023-08-07T00:42:22;9.77;;;5.32;;
50231;SDS011;36118;56.468;84.952;2023-08-07T00:47:27;12.07;;;6.30;;
50231;SDS011;36118;56.468;84.952;2023-08-07T00:52:32;12.23;;;7.00;;
50231;SDS011;36118;56.468;84.952;2023-08-07T00:57:35;12.07;;;6.65;;
50231;SDS011;36118;56.468;84.952;2023-08-07T01:02:38;10.68;;;5.95;;
50231;SDS011;36118;56.468;84.952;2023-08-07T01:07:42;11.25;;;6.22;;
50231;SDS011;36118;56.468;84.952;2023-08-07T01:12:48;18.70;;;8.35;;
50231;SDS011;36118;56.468;84.952;2023-08-07T01:17:56;14.07;;;7.57;;
50231;SDS011;36118;56.468;84.952;2023-08-07T01:23:00;10.55;;;6.45;;
50231;SDS011;36118;56.468;84.952;2023-08-07T01:33:31;11.38;;;6.10;;
50231;SDS011;36118;56.468;84.952;2023-08-07T01:38:37;11.20;;;6.00;;
50231;SDS011;36118;56.468;84.952;2023-08-07T01:43:40;15.85;;;6.57;;
50231;SDS011;36118;56.468;84.952;2023-08-07T01:48:43;10.65;;;6.13;;
50231;SDS011;36118;56.468;84.952;2023-08-07T01:53:46;14.05;;;6.75;;
50231;SDS011;36118;56.468;84.952;2023-08-07T01:58:50;13.43;;;5.93;;
50231;SDS011;36118;56.468;84.952;2023-08-07T02:03:53;10.43;;;5.03;;
50231;SDS011;36118;56.468;84.952;2023-08-07T02:08:57;10.10;;;5.95;;
50231;SDS011;36118;56.468;84.952;2023-08-07T02:14:01;10.13;;;5.87;;
50231;SDS011;36118;56.468;84.952;2023-08-07T02:19:04;13.48;;;6.55;;
50231;SDS011;36118;56.468;84.952;2023-08-07T02:24:07;13.50;;;5.85;;
50231;SDS011;36118;56.468;84.952;2023-08-07T02:29:13;8.60;;;5.68;;
50231;SDS011;36118;56.468;84.952;2023-08-07T02:34:16;8.82;;;5.78;;
50231;SDS011;36118;56.468;84.952;2023-08-07T02:39:19;12.60;;;5.85;;
50231;SDS011;36118;56.468;84.952;2023-08-07T02:44:24;10.80;;;5.28;;
50231;SDS011;36118;56.468;84.952;2023-08-07T02:49:27;15.93;;;6.03;;
50231;SDS011;36118;56.468;84.952;2023-08-07T02:54:30;10.77;;;5.88;;
50231;SDS011;36118;56.468;84.952;2023-08-07T02:59:33;14.68;;;6.03;;
50231;SDS011;36118;56.468;84.952;2023-08-07T03:04:35;13.00;;;5.68;;
50231;SDS011;36118;56.468;84.952;2023-08-07T03:09:39;9.45;;;5.03;;
50231;SDS011;36118;56.468;84.952;2023-08-07T03:14:42;11.60;;;5.40;;
50231;SDS011;36118;56.468;84.952;2023-08-07T03:19:45;9.68;;;5.40;;
50231;SDS011;36118;56.468;84.952;2023-08-07T03:24:49;21.02;;;7.05;;
50231;SDS011;36118;56.468;84.952;2023-08-07T03:29:52;9.13;;;5.53;;
50231;SDS011;36118;56.468;84.952;2023-08-07T03:34:59;9.77;;;6.15;;
50231;SDS011;36118;56.468;84.952;2023-08-07T03:45:07;10.93;;;5.63;;
50231;SDS011;36118;56.468;84.952;2023-08-07T03:50:10;15.35;;;5.85;;
50231;SDS011;36118;56.468;84.952;2023-08-07T03:55:14;9.30;;;5.13;;
50231;SDS011;36118;56.468;84.952;2023-08-07T04:00:17;14.77;;;6.10;;
50231;SDS011;36118;56.468;84.952;2023-08-07T04:05:23;11.63;;;5.20;;
50231;SDS011;36118;56.468;84.952;2023-08-07T04:10:26;13.18;;;5.25;;
50231;SDS011;36118;56.468;84.952;2023-08-07T04:15:29;14.10;;;5.60;;
50231;SDS011;36118;56.468;84.952;2023-08-07T04:20:33;6.47;;;4.10;;
50231;SDS011;36118;56.468;84.952;2023-08-07T04:25:36;9.50;;;5.10;;
50231;SDS011;36118;56.468;84.952;2023-08-07T04:30:42;7.03;;;4.47;;
50231;SDS011;36118;56.468;84.952;2023-08-07T04:35:46;10.55;;;5.43;;
50231;SDS011;36118;56.468;84.952;2023-08-07T04:40:50;8.65;;;5.25;;
50231;SDS011;36118;56.468;84.952;2023-08-07T04:45:53;8.38;;;4.70;;
50231;SDS011;36118;56.468;84.952;2023-08-07T04:50:56;8.57;;;3.80;;
50231;SDS011;36118;56.468;84.952;2023-08-07T04:56:00;7.88;;;3.30;;
50231;SDS011;36118;56.468;84.952;2023-08-07T05:01:03;5.60;;;2.92;;
50231;SDS011;36118;56.468;84.952;2023-08-07T05:06:06;5.47;;;3.10;;
50231;SDS011;36118;56.468;84.952;2023-08-07T05:11:12;8.38;;;2.53;;
50231;SDS011;36118;56.468;84.952;2023-08-07T05:16:15;4.93;;;2.22;;
50231;SDS011;36118;56.468;84.952;2023-08-07T05:21:22;5.50;;;2.90;;
50231;SDS011;36118;56.468;84.952;2023-08-07T05:26:25;8.55;;;3.20;;
50231;SDS011;36118;56.468;84.952;2023-08-07T05:31:28;8.80;;;3.10;;
50231;SDS011;36118;56.468;84.952;2023-08-07T05:36:33;6.07;;;2.83;;
50231;SDS011;36118;56.468;84.952;2023-08-07T05:41:36;7.28;;;3.17;;
50231;SDS011;36118;56.468;84.952;2023-08-07T05:46:40;6.97;;;3.15;;
50231;SDS011;36118;56.468;84.952;2023-08-07T05:51:43;6.57;;;3.10;;
50231;SDS011;36118;56.468;84.952;2023-08-07T05:56:46;9.48;;;3.10;;
50231;SDS011;36118;56.468;84.952;2023-08-07T06:01:49;6.95;;;3.15;;
50231;SDS011;36118;56.468;84.952;2023-08-07T06:06:53;7.82;;;3.67;;
50231;SDS011;36118;56.468;84.952;2023-08-07T06:11:57;5.65;;;2.90;;
50231;SDS011;36118;56.468;84.952;2023-08-07T06:17:02;5.28;;;2.60;;
50231;SDS011;36118;56.468;84.952;2023-08-07T06:22:06;7.40;;;2.92;;
50231;SDS011;36118;56.468;84.952;2023-08-07T06:27:08;6.22;;;2.90;;
50231;SDS011;36118;56.468;84.952;2023-08-07T06:32:11;7.75;;;3.35;;
50231;SDS011;36118;56.468;84.952;2023-08-07T06:37:14;7.78;;;3.40;;
50231;SDS011;36118;56.468;84.952;2023-08-07T06:42:18;7.78;;;3.13;;
50231;SDS011;36118;56.468;84.952;2023-08-07T06:47:21;7.95;;;3.35;;
50231;SDS011;36118;56.468;84.952;2023-08-07T06:52:24;5.22;;;2.17;;
50231;SDS011;36118;56.468;84.952;2023-08-07T06:57:28;5.10;;;2.00;;
50231;SDS011;36118;56.468;84.952;2023-08-07T07:02:30;4.60;;;2.30;;
50231;SDS011;36118;56.468;84.952;2023-08-07T07:07:34;4.80;;;3.00;;
50231;SDS011;36118;56.468;84.952;2023-08-07T07:12:38;4.40;;;2.20;;
50231;SDS011;36118;56.468;84.952;2023-08-07T07:17:40;5.93;;;2.20;;
50231;SDS011;36118;56.468;84.952;2023-08-07T07:22:44;7.07;;;2.55;;
50231;SDS011;36118;56.468;84.952;2023-08-07T07:27:48;4.28;;;2.47;;
50231;SDS011;36118;56.468;84.952;2023-08-07T07:32:51;4.47;;;2.30;;
50231;SDS011;36118;56.468;84.952;2023-08-07T07:37:55;5.50;;;2.25;;
50231;SDS011;36118;56.468;84.952;2023-08-07T07:42:58;3.65;;;2.42;;
50231;SDS011;36118;56.468;84.952;2023-08-07T07:48:03;3.97;;;2.30;;
50231;SDS011;36118;56.468;84.952;2023-08-07T07:53:08;4.15;;;2.35;;
50231;SDS011;36118;56.468;84.952;2023-08-07T07:58:12;4.90;;;2.72;;
50231;SDS011;36118;56.468;84.952;2023-08-07T08:03:15;5.13;;;2.55;;
50231;SDS011;36118;56.468;84.952;2023-08-07T08:08:19;7.45;;;3.22;;
50231;SDS011;36118;56.468;84.952;2023-08-07T08:13:22;7.43;;;2.97;;
50231;SDS011;36118;56.468;84.952;2023-08-07T08:18:28;8.05;;;2.80;;
50231;SDS011;36118;56.468;84.952;2023-08-07T08:23:31;5.00;;;2.33;;
50231;SDS011;36118;56.468;84.952;2023-08-07T08:28:34;12.63;;;4.30;;
50231;SDS011;36118;56.468;84.952;2023-08-07T08:33:37;4.28;;;2.45;;
50231;SDS011;36118;56.468;84.952;2023-08-07T08:38:41;6.43;;;2.85;;
50231;SDS011;36118;56.468;84.952;2023-08-07T08:43:45;6.63;;;3.55;;
50231;SDS011;36118;56.468;84.952;2023-08-07T08:48:50;5.95;;;2.40;;
50231;SDS011;36118;56.468;84.952;2023-08-07T08:53:54;7.07;;;2.38;;
50231;SDS011;36118;56.468;84.952;2023-08-07T08:58:59;6.07;;;2.60;;
50231;SDS011;36118;56.468;84.952;2023-08-07T09:04:04;6.50;;;2.17;;
50231;SDS011;36118;56.468;84.952;2023-08-07T09:09:08;4.65;;;2.70;;
50231;SDS011;36118;56.468;84.952;2023-08-07T09:14:19;4.95;;;2.15;;
50231;SDS011;36118;56.468;84.952;2023-08-07T09:19:26;6.95;;;2.20;;
50231;SDS011;36118;56.468;84.952;2023-08-07T09:24:29;8.38;;;3.53;;
50231;SDS011;36118;56.468;84.952;2023-08-07T09:29:33;5.20;;;2.55;;
50231;SDS011;36118;56.468;84.952;2023-08-07T09:34:36;8.07;;;3.45;;
50231;SDS011;36118;56.468;84.952;2023-08-07T09:39:42;5.35;;;2.80;;
50231;SDS011;36118;56.468;84.952;2023-08-07T09:44:45;4.03;;;2.67;;
50231;SDS011;36118;56.468;84.952;2023-08-07T09:49:49;4.78;;;2.88;;
50231;SDS011;36118;56.468;84.952;2023-08-07T09:54:58;3.72;;;2.53;;
50231;SDS011;36118;56.468;84.952;2023-08-07T10:00:03;4.47;;;3.20;;
50231;SDS011;36118;56.468;84.952;2023-08-07T10:05:16;6.47;;;3.17;;
50231;SDS011;36118;56.468;84.952;2023-08-07T10:10:20;31.90;;;5.70;;
50231;SDS011;36118;56.468;84.952;2023-08-07T10:15:23;5.00;;;2.80;;
50231;SDS011;36118;56.468;84.952;2023-08-07T10:20:27;4.75;;;2.67;;
50231;SDS011;36118;56.468;84.952;2023-08-07T10:25:31;10.75;;;3.55;;
50231;SDS011;36118;56.468;84.952;2023-08-07T10:30:34;6.47;;;3.03;;
50231;SDS011;36118;56.468;84.952;2023-08-07T10:35:44;6.82;;;3.42;;
50231;SDS011;36118;56.468;84.952;2023-08-07T10:41:00;5.35;;;3.22;;
50231;SDS011;36118;56.468;84.952;2023-08-07T10:46:11;8.48;;;2.97;;
50231;SDS011;36118;56.468;84.952;2023-08-07T10:51:19;7.18;;;3.10;;
50231;SDS011;36118;56.468;84.952;2023-08-07T10:56:31;8.00;;;2.83;;
50231;SDS011;36118;56.468;84.952;2023-08-07T11:01:48;8.00;;;2.92;;
50231;SDS011;36118;56.468;84.952;2023-08-07T11:06:55;7.93;;;2.65;;
50231;SDS011;36118;56.468;84.952;2023-08-07T11:11:59;3.85;;;2.60;;
50231;SDS011;36118;56.468;84.952;2023-08-07T11:17:03;9.13;;;2.88;;
50231;SDS011;36118;56.468;84.952;2023-08-07T11:22:06;5.25;;;2.50;;
50231;SDS011;36118;56.468;84.952;2023-08-07T11:27:11;9.15;;;3.15;;
50231;SDS011;36118;56.468;84.952;2023-08-07T11:32:14;5.78;;;2.72;;
50231;SDS011;36118;56.468;84.952;2023-08-07T11:37:17;6.85;;;2.97;;
50231;SDS011;36118;56.468;84.952;2023-08-07T11:42:22;8.35;;;3.47;;
50231;SDS011;36118;56.468;84.952;2023-08-07T11:47:26;6.32;;;3.30;;
50231;SDS011;36118;56.468;84.952;2023-08-07T11:52:29;7.68;;;4.05;;
50231;SDS011;36118;56.468;84.952;2023-08-07T11:57:34;7.07;;;3.20;;
50231;SDS011;36118;56.468;84.952;2023-08-07T12:02:37;8.23;;;3.50;;
50231;SDS011;36118;56.468;84.952;2023-08-07T12:07:41;7.93;;;3.83;;
50231;SDS011;36118;56.468;84.952;2023-08-07T12:12:45;11.33;;;4.07;;
50231;SDS011;36118;56.468;84.952;2023-08-07T12:18:02;8.57;;;4.57;;
50231;SDS011;36118;56.468;84.952;2023-08-07T12:23:10;8.98;;;3.83;;
50231;SDS011;36118;56.468;84.952;2023-08-07T12:28:19;8.80;;;4.20;;
50231;SDS011;36118;56.468;84.952;2023-08-07T12:33:22;9.93;;;3.50;;
50231;SDS011;36118;56.468;84.952;2023-08-07T12:38:26;6.38;;;4.15;;
50231;SDS011;36118;56.468;84.952;2023-08-07T12:43:30;12.95;;;4.75;;
50231;SDS011;36118;56.468;84.952;2023-08-07T12:48:34;7.38;;;4.07;;
50231;SDS011;36118;56.468;84.952;2023-08-07T12:53:38;8.80;;;3.90;;
50231;SDS011;36118;56.468;84.952;2023-08-07T12:58:42;7.57;;;4.03;;
50231;SDS011;36118;56.468;84.952;2023-08-07T13:03:46;8.05;;;4.13;;
50231;SDS011;36118;56.468;84.952;2023-08-07T13:08:50;12.02;;;4.80;;
50231;SDS011;36118;56.468;84.952;2023-08-07T13:13:54;8.60;;;4.47;;
50231;SDS011;36118;56.468;84.952;2023-08-07T13:18:57;6.80;;;3.60;;
50231;SDS011;36118;56.468;84.952;2023-08-07T13:24:01;7.75;;;3.70;;
50231;SDS011;36118;56.468;84.952;2023-08-07T13:29:05;6.65;;;3.35;;
50231;SDS011;36118;56.468;84.952;2023-08-07T13:34:08;6.55;;;3.35;;
50231;SDS011;36118;56.468;84.952;2023-08-07T13:39:13;4.85;;;3.33;;
50231;SDS011;36118;56.468;84.952;2023-08-07T13:44:17;6.77;;;3.70;;
50231;SDS011;36118;56.468;84.952;2023-08-07T13:49:21;7.72;;;3.70;;
50231;SDS011;36118;56.468;84.952;2023-08-07T13:54:27;6.10;;;3.38;;
50231;SDS011;36118;56.468;84.952;2023-08-07T13:59:32;13.57;;;3.72;;
50231;SDS011;36118;56.468;84.952;2023-08-07T14:04:36;7.93;;;3.50;;
50231;SDS011;36118;56.468;84.952;2023-08-07T14:09:39;5.95;;;2.67;;
50231;SDS011;36118;56.468;84.952;2023-08-07T14:14:44;4.20;;;2.65;;
50231;SDS011;36118;56.468;84.952;2023-08-07T14:19:47;5.72;;;3.20;;
50231;SDS011;36118;56.468;84.952;2023-08-07T14:24:51;6.47;;;2.75;;
50231;SDS011;36118;56.468;84.952;2023-08-07T14:29:55;4.70;;;2.70;;
50231;SDS011;36118;56.468;84.952;2023-08-07T14:34:59;7.18;;;2.83;;
50231;SDS011;36118;56.468;84.952;2023-08-07T14:40:04;5.93;;;3.33;;
50231;SDS011;36118;56.468;84.952;2023-08-07T14:45:09;6.78;;;3.30;;
50231;SDS011;36118;56.468;84.952;2023-08-07T14:50:13;7.57;;;3.30;;
50231;SDS011;36118;56.468;84.952;2023-08-07T14:55:18;6.93;;;3.42;;
50231;SDS011;36118;56.468;84.952;2023-08-07T15:00:22;6.95;;;3.63;;
50231;SDS011;36118;56.468;84.952;2023-08-07T15:05:26;5.10;;;2.78;;
50231;SDS011;36118;56.468;84.952;2023-08-07T15:10:29;10.43;;;3.45;;
50231;SDS011;36118;56.468;84.952;2023-08-07T15:15:32;9.52;;;3.30;;
50231;SDS011;36118;56.468;84.952;2023-08-07T15:20:35;6.22;;;3.53;;
50231;SDS011;36118;56.468;84.952;2023-08-07T15:25:39;10.50;;;3.45;;
50231;SDS011;36118;56.468;84.952;2023-08-07T15:30:46;9.35;;;3.50;;
50231;SDS011;36118;56.468;84.952;2023-08-07T15:35:54;4.43;;;3.20;;
50231;SDS011;36118;56.468;84.952;2023-08-07T15:40:58;9.35;;;3.65;;
50231;SDS011;36118;56.468;84.952;2023-08-07T15:46:01;7.50;;;3.53;;
50231;SDS011;36118;56.468;84.952;2023-08-07T15:51:05;5.85;;;3.42;;
50231;SDS011;36118;56.468;84.952;2023-08-07T15:56:08;8.93;;;3.83;;
50231;SDS011;36118;56.468;84.952;2023-08-07T16:01:11;12.88;;;3.85;;
50231;SDS011;36118;56.468;84.952;2023-08-07T16:06:14;7.57;;;4.20;;
50231;SDS011;36118;56.468;84.952;2023-08-07T16:11:19;5.90;;;3.93;;
50231;SDS011;36118;56.468;84.952;2023-08-07T16:16:22;8.85;;;4.18;;
50231;SDS011;36118;56.468;84.952;2023-08-07T16:21:25;10.48;;;4.30;;
50231;SDS011;36118;56.468;84.952;2023-08-07T16:26:28;9.60;;;4.30;;
50231;SDS011;36118;56.468;84.952;2023-08-07T16:31:31;8.45;;;4.07;;
50231;SDS011;36118;56.468;84.952;2023-08-07T16:36:35;10.45;;;4.10;;
50231;SDS011;36118;56.468;84.952;2023-08-07T16:41:39;7.82;;;3.80;;
50231;SDS011;36118;56.468;84.952;2023-08-07T16:46:47;10.10;;;3.42;;
50231;SDS011;36118;56.468;84.952;2023-08-07T16:51:51;8.20;;;3.50;;
50231;SDS011;36118;56.468;84.952;2023-08-07T16:56:57;6.82;;;3.38;;
50231;SDS011;36118;56.468;84.952;2023-08-07T17:02:00;6.90;;;3.92;;
50231;SDS011;36118;56.468;84.952;2023-08-07T17:07:06;6.45;;;3.75;;
50231;SDS011;36118;56.468;84.952;2023-08-07T17:12:10;9.93;;;3.33;;
50231;SDS011;36118;56.468;84.952;2023-08-07T17:17:15;6.85;;;3.30;;
50231;SDS011;36118;56.468;84.952;2023-08-07T17:22:18;6.72;;;3.28;;
50231;SDS011;36118;56.468;84.952;2023-08-07T17:27:22;5.63;;;3.35;;
50231;SDS011;36118;56.468;84.952;2023-08-07T17:32:24;6.20;;;2.80;;
50231;SDS011;36118;56.468;84.952;2023-08-07T17:37:27;7.25;;;3.22;;
50231;SDS011;36118;56.468;84.952;2023-08-07T17:42:31;5.22;;;3.33;;
50231;SDS011;36118;56.468;84.952;2023-08-07T17:47:34;6.93;;;3.63;;
50231;SDS011;36118;56.468;84.952;2023-08-07T17:52:37;5.50;;;3.85;;
50231;SDS011;36118;56.468;84.952;2023-08-07T17:57:41;5.10;;;3.50;;
50231;SDS011;36118;56.468;84.952;2023-08-07T18:02:44;5.88;;;3.47;;
50231;SDS011;36118;56.468;84.952;2023-08-07T18:07:49;6.28;;;3.70;;
50231;SDS011;36118;56.468;84.952;2023-08-07T18:12:53;7.20;;;4.50;;
50231;SDS011;36118;56.468;84.952;2023-08-07T18:17:57;5.53;;;4.03;;
50231;SDS011;36118;56.468;84.952;2023-08-07T18:23:00;7.40;;;4.35;;
50231;SDS011;36118;56.468;84.952;2023-08-07T18:28:03;5.88;;;4.00;;
50231;SDS011;36118;56.468;84.952;2023-08-07T18:33:06;5.28;;;3.60;;
50231;SDS011;36118;56.468;84.952;2023-08-07T18:38:09;5.72;;;3.50;;
50231;SDS011;36118;56.468;84.952;2023-08-07T18:43:13;5.72;;;3.60;;
50231;SDS011;36118;56.468;84.952;2023-08-07T18:48:15;5.15;;;3.47;;
50231;SDS011;36118;56.468;84.952;2023-08-07T18:53:19;7.75;;;3.28;;
50231;SDS011;36118;56.468;84.952;2023-08-07T18:58:23;5.32;;;3.60;;
50231;SDS011;36118;56.468;84.952;2023-08-07T19:03:26;6.50;;;3.88;;
50231;SDS011;36118;56.468;84.952;2023-08-07T19:08:29;6.68;;;3.83;;
50231;SDS011;36118;56.468;84.952;2023-08-07T19:13:32;6.65;;;3.95;;
50231;SDS011;36118;56.468;84.952;2023-08-07T19:18:36;5.30;;;3.80;;
50231;SDS011;36118;56.468;84.952;2023-08-07T19:23:39;7.53;;;4.40;;
50231;SDS011;36118;56.468;84.952;2023-08-07T19:28:42;9.32;;;4.40;;
50231;SDS011;36118;56.468;84.952;2023-08-07T19:33:45;5.50;;;4.22;;
50231;SDS011;36118;56.468;84.952;2023-08-07T19:38:48;6.03;;;3.75;;
50231;SDS011;36118;56.468;84.952;2023-08-07T19:43:52;6.70;;;4.30;;
50231;SDS011;36118;56.468;84.952;2023-08-07T19:48:54;6.70;;;4.25;;
50231;SDS011;36118;56.468;84.952;2023-08-07T19:53:59;5.47;;;4.35;;
50231;SDS011;36118;56.468;84.952;2023-08-07T19:59:04;6.25;;;4.00;;
50231;SDS011;36118;56.468;84.952;2023-08-07T20:04:07;6.60;;;4.10;;
50231;SDS011;36118;56.468;84.952;2023-08-07T20:09:11;7.07;;;4.00;;
50231;SDS011;36118;56.468;84.952;2023-08-07T20:14:15;6.68;;;4.07;;
50231;SDS011;36118;56.468;84.952;2023-08-07T20:19:19;7.60;;;4.22;;
50231;SDS011;36118;56.468;84.952;2023-08-07T20:24:23;7.05;;;4.15;;
50231;SDS011;36118;56.468;84.952;2023-08-07T20:29:26;8.10;;;3.90;;
50231;SDS011;36118;56.468;84.952;2023-08-07T20:34:30;7.20;;;4.35;;
50231;SDS011;36118;56.468;84.952;2023-08-07T20:39:34;10.85;;;4.50;;
50231;SDS011;36118;56.468;84.952;2023-08-07T20:44:37;10.20;;;4.63;;
50231;SDS011;36118;56.468;84.952;2023-08-07T20:49:39;10.75;;;4.40;;
50231;SDS011;36118;56.468;84.952;2023-08-07T20:54:42;7.13;;;4.35;;
50231;SDS011;36118;56.468;84.952;2023-08-07T20:59:46;7.10;;;4.10;;
50231;SDS011;36118;56.468;84.952;2023-08-07T21:04:48;7.97;;;4.30;;
50231;SDS011;36118;56.468;84.952;2023-08-07T21:09:52;7.90;;;4.22;;
50231;SDS011;36118;56.468;84.952;2023-08-07T21:14:55;8.50;;;4.80;;
50231;SDS011;36118;56.468;84.952;2023-08-07T21:19:58;7.35;;;4.50;;
50231;SDS011;36118;56.468;84.952;2023-08-07T21:25:01;8.63;;;4.25;;
50231;SDS011;36118;56.468;84.952;2023-08-07T21:30:05;8.50;;;4.67;;
50231;SDS011;36118;56.468;84.952;2023-08-07T21:35:13;7.25;;;4.10;;
50231;SDS011;36118;56.468;84.952;2023-08-07T21:40:16;6.38;;;3.90;;
50231;SDS011;36118;56.468;84.952;2023-08-07T21:45:21;8.05;;;4.43;;
50231;SDS011;36118;56.468;84.952;2023-08-07T21:50:24;8.60;;;4.45;;
50231;SDS011;36118;56.468;84.952;2023-08-07T21:55:27;6.35;;;4.10;;
50231;SDS011;36118;56.468;84.952;2023-08-07T22:00:30;6.35;;;4.32;;
50231;SDS011;36118;56.468;84.952;2023-08-07T22:05:33;8.70;;;4.30;;
50231;SDS011;36118;56.468;84.952;2023-08-07T22:10:36;7.93;;;4.15;;
50231;SDS011;36118;56.468;84.952;2023-08-07T22:15:39;6.80;;;4.50;;
50231;SDS011;36118;56.468;84.952;2023-08-07T22:20:43;7.28;;;4.45;;
50231;SDS011;36118;56.468;84.952;2023-08-07T22:25:45;6.30;;;4.13;;
50231;SDS011;36118;56.468;84.952;2023-08-07T22:30:49;7.40;;;4.68;;
50231;SDS011;36118;56.468;84.952;2023-08-07T22:35:52;5.63;;;4.30;;
50231;SDS011;36118;56.468;84.952;2023-08-07T22:40:55;11.02;;;4.75;;
50231;SDS011;36118;56.468;84.952;2023-08-07T22:45:58;7.95;;;4.50;;
50231;SDS011;36118;56.468;84.952;2023-08-07T22:51:01;8.25;;;4.65;;
50231;SDS011;36118;56.468;84.952;2023-08-07T22:56:04;9.15;;;4.93;;
50231;SDS011;36118;56.468;84.952;2023-08-07T23:01:08;7.30;;;4.53;;
50231;SDS011;36118;56.468;84.952;2023-08-07T23:06:11;6.90;;;4.30;;
50231;SDS011;36118;56.468;84.952;2023-08-07T23:11:15;7.22;;;4.72;;
50231;SDS011;36118;56.468;84.952;2023-08-07T23:16:18;7.38;;;4.57;;
50231;SDS011;36118;56.468;84.952;2023-08-07T23:21:21;6.55;;;4.63;;
50231;SDS011;36118;56.468;84.952;2023-08-07T23:26:25;7.28;;;5.05;;
50231;SDS011;36118;56.468;84.952;2023-08-07T23:31:29;7.17;;;4.43;;
50231;SDS011;36118;56.468;84.952;2023-08-07T23:36:33;9.82;;;5.00;;
50231;SDS011;36118;56.468;84.952;2023-08-07T23:41:37;8.43;;;4.80;;
50231;SDS011;36118;56.468;84.952;2023-08-07T23:46:41;8.75;;;4.95;;
50231;SDS011;36118;56.468;84.952;2023-08-07T23:51:44;8.65;;;5.07;;
50231;SDS011;36118;56.468;84.952;2023-08-07T23:56:47;7.47;;;4.70;;
